x

Luke Offshore Test Platform - 64 Nm South Of Dauphin Island, Al (42040) Wave Buoy

6:50am - Fri 18th Apr 2014 All times are CDT. -5 hours from GMT.

  • Sig Wave height 9.8ft
  • Swell Direction
  • Average Period 6s
  • Wind
    29mph, 38mph gusts
  • Sea Temp 71°f
  • Air Temp 66°f
  • Sea Pressure 1014.5mb
  • Luke Offshore Test Platform - 64 Nm South Of Dauphin Island, Al
  • Luke Offshore Test Platform - 64 Nm South Of Dauphin Island, Al

More Historic Weather Station data

Upgrade to MSW Pro to gain access to the past 30 days of data for over 8000 Wavebouys and Weather Stations around the globe.

Join Pro

Comparision Forecast

View Surf forecast
   
Fri 04/18 6:50am 10ft 6s 29 38 mph 1014.5mb 71f 66f
5:50am 10ft 6s 29 36 mph 1013.6mb 71f 66f
4:50am 10ft 6s 20 27 mph 1014.7mb 71f 67f
3:50am 8.5ft 6s 27 31 mph 1014.4mb 71f 66f
2:50am 9.5ft 6s 29 36 mph 1015.1mb 71f 66f
1:50am 8ft 6s 29 36 mph 1016.5mb 71f 66f
12:50am 7ft 6s 27 31 mph 1018.2mb 71f 65f
Thu 04/17 11:50pm 8ft 6s 25 29 mph 1019.6mb 71f 65f
10:50pm 8ft 6s 27 31 mph 1020.4mb 71f 64f
9:50pm 8ft 6s 22 27 mph 1020.8mb 71f 65f
8:50pm 8ft 6s 25 29 mph 1020.8mb 71f 64f
7:50pm 8ft 6s 22 27 mph 1019.9mb 71f 66f
6:50pm 8ft 6s 22 27 mph 1019.7mb 71f 67f
5:50pm 8.5ft 6s 25 29 mph 1019.8mb 71f 67f
4:50pm 8.5ft 6s 22 27 mph 1020.1mb 71f 66f
3:50pm 9ft 6s 25 29 mph 1019.8mb 71f 66f
2:50pm 8.5ft 6s 27 31 mph 1020mb 71f 66f
1:50pm 8.5ft 6s 27 34 mph 1020.7mb 71f 66f
12:50pm 8ft 6s 27 34 mph 1021.2mb 71f 66f
11:50am 8ft 6s 29 34 mph 1021.7mb 71f 66f
10:50am 8ft 6s 29 34 mph 1021.4mb 71f 66f
9:50am 7ft 6s 25 29 mph 1021.5mb 71f 67f
8:50am 6.5ft 5s 22 27 mph 1021.4mb 71f 68f
7:50am 6.5ft 5s 27 31 mph 1020.1mb 70f 68f
6:50am 5ft 5s 29 34 mph 1019.5mb 70f 68f
5:50am 5ft 5s 20 22 mph 1019.5mb 69f 67f
4:50am 5.5ft 5s 20 25 mph 1019.7mb 69f 67f
3:50am 5ft 5s 22 27 mph 1019.4mb 69f 67f
2:50am 5ft 5s 22 27 mph 1019.6mb 69f 67f
1:50am 5ft 5s 25 34 mph 1019.8mb 69f 66f
12:50am 4.5ft 4s 22 29 mph 1020.4mb 69f 65f
Wed 04/16 11:50pm 4ft 4s 25 29 mph 1020.7mb 69f 64f
10:50pm 3.5ft 4s 22 29 mph 1020.9mb 69f 64f
9:50pm 3.5ft 4s 22 27 mph 1020.6mb 69f 62f
8:50pm 3ft 4s 20 25 mph 1020.5mb 69f 61f
7:50pm 3ft 5s 13 20 mph 1020.6mb 69f 59f
6:50pm 3ft 5s 13 20 mph 1020.6mb 69f 58f
5:50pm 3.5ft 5s 11 16 mph 1020.7mb 70f 58f
4:50pm 3ft 5s 11 16 mph 1020.6mb 70f 58f
3:50pm 3ft 4s 11 18 mph 1020.8mb 70f 58f
12:50pm 4.5ft 5s 13
mph
1022.1mb - 56f
11:50am 4.5ft 5s 13
mph
1022.7mb - 56f
9:50am 5ft 5s 16 22 mph 1022.8mb 69f 56f
8:50am 5ft 5s 18 25 mph 1022.5mb 68f 55f
7:50am 5ft 5s 18 25 mph 1022.5mb 68f 55f
6:50am 5ft 5s 18 27 mph 1022mb 68f 55f
5:50am 6ft 5s 20 27 mph 1021.1mb 68f 55f
4:50am 7ft 5s 25 29 mph 1020.2mb 68f 55f
3:50am 7ft 5s 25 34 mph 1020.1mb 68f 55f
2:50am 5.5ft 5s 27 34 mph 1020.1mb 68f 55f
1:50am 7ft 5s 27 34 mph 1020.2mb 68f 56f
12:50am 6ft 5s 25 29 mph 1021mb 68f 57f
Tue 04/15 11:50pm 5.5ft 5s 25 34 mph 1020.9mb 68f 58f
10:50pm 6ft 5s 25 31 mph 1020.4mb 68f 59f
9:50pm 5ft 5s 27
mph
1020mb - 59f
8:50pm 6ft 5s 27 34 mph 1019mb 68f 59f
6:50pm 5.5ft 5s 22 29 mph 1018mb 68f 58f
5:50pm 6ft 5s 22 29 mph 1017.9mb 68f 56f
4:50pm 6ft 5s 25 31 mph 1017.3mb 68f 56f
12:50pm 7.5ft 5s 34
mph
1017.4mb 67f 54f
11:50am 8ft 5s 34
mph
1017.1mb 67f 54f
10:50am 9ft 5s 31
mph
- - -
6:50am 7ft 5s 34 40 mph 1012mb 69f 59f
5:50am 6ft 4s 34 38 mph 1011.3mb 69f 60f
4:50am 3.5ft 4s 34 38 mph 1009mb 68f 64f
3:50am 3ft 4s 18 20 mph 1009.2mb 68f 67f
2:50am 3ft 5s 11 13 mph 1008.8mb 69f 68f
1:50am 3ft 5s 11 13 mph 1008.8mb 70f 68f
12:50am 3.5ft 4s 13 18 mph 1009.3mb 71f 69f
Mon 04/14 11:50pm 3.5ft 4s 18 20 mph 1009.1mb 71f 73f
10:50pm 3.5ft 4s 20 22 mph 1008.5mb 71f 73f
9:50pm 3.5ft 5s 18 20 mph 1009mb 70f 73f
8:50pm 3.5ft 4s 20 22 mph 1008.2mb 69f 73f
6:50pm 3ft 5s 20 22 mph 1007.8mb 68f 73f
5:50pm 3ft 5s 18 20 mph 1007.8mb 69f 73f
4:50pm 3.5ft 5s 16
mph
- - -
2:50pm 3.5ft 5s 11 13 mph 1010.6mb 69f 72f
1:50pm 3.5ft 5s 9 11 mph 1011.8mb 69f 72f